Mombaca, Brazil
Current Conditions -  °F | °C
As of 11:00 PM on Friday 24 Oct 2014 (Local Time) from SBJU Reporting Station
Few Clouds Few Clouds  
Wind Chill: 88°   Ceiling: Unl
Heat Index: 88°   Visibility: 6mi
Dew Point: 63°   Wind: 8mph
Humidity: 43%   Direction: 180°S
Pressure: 29.94"   Gusts: NA
Location:  5.74°S, 39.63°W
Report Text: SBJU 250200Z 18007KT 9999 FEW022 31/17 Q1014
Loading
Personal Weather Stations






























Interactive Weather Map
Tropical Storm Tracking
New forecast layout! Learn more

10-Day Weather Forecast

Advertisements
Track Severe Weather on mobile